French Camp, Mississippi
Current Conditions -  °F | °C
As of 11:35 PM on Tuesday 25 Nov 2014 (Local Time) from KSTF Reporting Station
NA  
Wind Chill: 30°   Ceiling: NA
Heat Index: 30°   Visibility: NA
Dew Point: 28°   Wind: 0mph
Humidity: 93%   Direction: NA
Pressure: 30.18"   Gusts: NA
Location:  33.29°N, 89.4°W
Report Text: KSTF 260535Z AUTO 00000KT M01/M02 A3018 RMK AO2 PWINO
Loading
Personal Weather Stations






























Interactive Weather Map New forecast layout! Learn more

10-Day Weather Forecast

Advertisements
Track Severe Weather on mobile